Time;durP1;ratioP1;P1;durP2;ratioP2;P2;SDS_P1;SDS_P2;PMS_P1;PMS_P2;Temp;Humidity;BMP_temperature;BMP_pressure;BME280_temperature;BME280_humidity;BME280_pressure;Samples;Min_cycle;Max_cycle;Signal;HPM_P1;HPM_P2
2022/04/17 00:01:47;;;;;;;15.13;13.60;;;;;;;6.68;56.09;102483.84;5113150;28;20193;-70
2022/04/17 00:04:15;;;;;;;14.83;13.37;;;;;;;6.58;56.66;102482.94;5096336;28;20207;-70
2022/04/17 00:06:42;;;;;;;15.53;13.90;;;;;;;6.59;56.33;102482.94;5112267;28;20216;-70
2022/04/17 00:09:08;;;;;;;13.93;12.60;;;;;;;6.48;56.39;102487.22;5113842;28;20181;-71
2022/04/17 00:11:35;;;;;;;17.33;12.90;;;;;;;6.40;56.36;102490.66;5111674;28;20185;-70
2022/04/17 00:14:01;;;;;;;14.37;12.97;;;;;;;6.37;56.50;102483.72;5113756;28;20250;-70
2022/04/17 00:16:28;;;;;;;13.50;12.13;;;;;;;6.30;57.08;102488.03;5104376;28;20262;-70
2022/04/17 00:18:54;;;;;;;14.63;13.13;;;;;;;6.23;57.84;102474.97;5108565;28;20185;-70
2022/04/17 00:21:22;;;;;;;13.77;12.33;;;;;;;6.14;59.09;102469.72;5113411;28;20193;-70
2022/04/17 00:23:49;;;;;;;14.27;12.77;;;;;;;6.04;59.35;102474.88;5112170;28;20716;-70
2022/04/17 00:26:15;;;;;;;13.90;12.50;;;;;;;5.96;59.68;102467.91;5112808;28;20208;-70
2022/04/17 00:28:42;;;;;;;15.10;12.47;;;;;;;5.87;59.69;102465.22;5113021;28;20239;-70
2022/04/17 00:31:08;;;;;;;13.97;12.67;;;;;;;5.84;59.74;102470.38;5101356;28;20233;-70
2022/04/17 00:33:35;;;;;;;13.23;12.03;;;;;;;5.77;60.49;102470.31;5112801;28;20181;-70
2022/04/17 00:36:02;;;;;;;13.43;12.17;;;;;;;5.69;60.53;102460.75;5112488;28;20214;-70
2022/04/17 00:38:28;;;;;;;14.07;12.23;;;;;;;5.60;60.61;102464.16;5117932;28;20200;-70
2022/04/17 00:40:54;;;;;;;12.87;11.60;;;;;;;5.53;61.06;102459.78;5116921;28;20240;-70
2022/04/17 00:43:25;;;;;;;15.43;12.70;;;;;;;5.51;61.90;102449.38;5102361;28;20192;-70
2022/04/17 00:45:55;;;;;;;13.27;11.87;;;;;;;5.30;62.39;102449.19;5097322;28;20213;-71
2022/04/17 00:48:22;;;;;;;14.43;12.53;;;;;;;5.21;63.03;102450.00;5097209;28;20195;-72
2022/04/17 00:50:51;;;;;;;15.23;12.23;;;;;;;5.23;63.85;102450.00;5107656;28;20192;-70
2022/04/17 00:53:21;;;;;;;13.43;12.23;;;;;;;5.23;63.59;102443.09;5117815;28;20184;-71
2022/04/17 00:55:49;;;;;;;13.40;12.10;;;;;;;5.27;64.29;102437.91;5116089;28;20211;-70
2022/04/17 00:58:16;;;;;;;12.20;11.20;;;;;;;5.18;64.88;102444.75;5112527;28;20199;-70
2022/04/17 01:00:44;;;;;;;12.23;11.33;;;;;;;5.16;64.53;102446.50;5116497;28;20234;-70
2022/04/17 01:03:12;;;;;;;13.50;12.23;;;;;;;5.25;63.77;102437.91;5116995;28;20593;-71
2022/04/17 01:05:42;;;;;;;15.30;12.10;;;;;;;5.28;63.88;102442.25;5116228;28;20249;-69
2022/04/17 01:08:12;;;;;;;14.80;12.00;;;;;;;5.23;63.06;102437.91;5117464;28;20526;-69
2022/04/17 01:10:39;;;;;;;13.17;12.03;;;;;;;5.24;62.84;102431.84;5117185;28;20623;-69
2022/04/17 01:13:09;;;;;;;12.27;11.27;;;;;;;5.32;62.67;102428.44;5111405;28;20679;-68
2022/04/17 01:15:37;;;;;;;13.80;11.53;;;;;;;5.43;62.39;102435.47;5117220;28;20244;-68
2022/04/17 01:18:05;;;;;;;14.23;12.30;;;;;;;5.37;62.72;102438.00;5116316;28;20282;-68
2022/04/17 01:20:31;;;;;;;13.20;12.07;;;;;;;5.35;62.63;102431.03;5116047;28;20189;-68
2022/04/17 01:28:28;;;;;;;14.33;13.03;;;;;;;5.39;63.40;102433.69;5117154;28;20179;-68
2022/04/17 01:30:55;;;;;;;14.27;12.57;;;;;;;5.23;64.60;102432.69;5114862;28;20190;-68
2022/04/17 01:33:23;;;;;;;13.83;12.43;;;;;;;5.19;64.82;102428.31;5114300;28;20662;-69
2022/04/17 01:35:49;;;;;;;12.73;11.60;;;;;;;5.18;64.68;102424.00;5116975;28;20200;-69
2022/04/17 01:38:16;;;;;;;13.90;12.57;;;;;;;5.20;64.87;102424.00;5115569;28;20660;-68
2022/04/17 01:40:42;;;;;;;15.20;12.20;;;;;;;5.15;64.83;102420.50;5116227;28;20710;-68
2022/04/17 01:43:09;;;;;;;12.57;11.67;;;;;;;5.12;65.12;102421.34;5116550;28;20183;-68
2022/04/17 01:45:36;;;;;;;13.17;11.73;;;;;;;5.18;64.71;102418.81;5114007;28;20210;-69
2022/04/17 01:48:03;;;;;;;12.17;10.97;;;;;;;5.01;65.15;102415.19;5116269;28;20673;-69
2022/04/17 01:50:30;;;;;;;20.00;11.43;;;;;;;5.07;65.16;102410.06;5116367;28;20188;-69
2022/04/17 01:53:00;;;;;;;13.70;12.20;;;;;;;5.02;65.37;102416.06;5115143;28;20199;-68
2022/04/17 01:55:28;;;;;;;14.73;12.07;;;;;;;4.95;66.18;102425.53;5115279;28;20247;-68
2022/04/17 01:57:56;;;;;;;13.57;11.63;;;;;;;4.92;67.12;102415.97;5115251;28;20194;-68
2022/04/17 02:00:23;;;;;;;13.83;12.50;;;;;;;4.78;67.76;102421.88;5116219;28;20632;-68
2022/04/17 02:02:49;;;;;;;13.63;11.80;;;;;;;4.69;68.51;102415.75;5115340;28;20202;-68
2022/04/17 02:05:16;;;;;;;13.63;12.33;;;;;;;4.70;68.47;102414.00;5114215;28;20229;-68
2022/04/17 02:07:42;;;;;;;13.27;11.90;;;;;;;4.72;68.04;102414.94;5116111;28;20194;-68
2022/04/17 02:10:14;;;;;;;13.37;11.97;;;;;;;4.72;68.44;102419.25;5116102;28;20182;-68
2022/04/17 02:12:40;;;;;;;15.63;11.53;;;;;;;4.67;68.65;102414.00;5113687;28;20655;-67
2022/04/17 02:15:07;;;;;;;12.93;11.63;;;;;;;4.64;69.22;102417.44;5115895;28;20215;-68
2022/04/17 02:17:37;;;;;;;12.83;11.73;;;;;;;4.60;69.79;102417.38;5115069;28;20194;-68
2022/04/17 02:20:03;;;;;;;13.60;12.50;;;;;;;4.53;70.02;102413.84;5115123;28;20189;-68
2022/04/17 02:22:30;;;;;;;12.00;11.13;;;;;;;4.44;70.19;102408.56;5114302;28;20189;-67
2022/04/17 02:24:57;;;;;;;13.70;12.27;;;;;;;4.31;71.28;102406.69;5110647;28;20220;-67
2022/04/17 02:27:23;;;;;;;12.30;11.30;;;;;;;4.30;71.39;102417.91;5114271;28;20712;-67
2022/04/17 02:29:50;;;;;;;17.30;11.60;;;;;;;4.27;70.72;102410.06;5114853;28;20186;-67
2022/04/17 02:32:16;;;;;;;16.20;13.97;;;;;;;4.12;69.99;102411.63;5114900;28;20597;-67
2022/04/17 02:34:43;;;;;;;20.10;13.73;;;;;;;3.94;70.76;102416.59;5113949;28;20215;-67
2022/04/17 02:37:09;;;;;;;13.80;12.40;;;;;;;3.94;70.91;102403.63;5112781;28;20224;-67
2022/04/17 02:39:37;;;;;;;15.07;12.47;;;;;;;3.79;71.51;102406.91;5115762;28;20647;-67
2022/04/17 02:42:04;;;;;;;14.87;12.73;;;;;;;3.77;71.69;102407.69;5114653;28;20219;-67
2022/04/17 02:44:30;;;;;;;16.60;12.77;;;;;;;3.68;71.85;102405.84;5114375;28;20217;-67
2022/04/17 02:49:42;;;;;;;15.83;12.17;;;;;;;3.60;73.08;102407.47;5105125;28;20240;-67
2022/04/17 02:52:10;;;;;;;16.37;12.43;;;;;;;3.64;73.87;102410.97;5098854;28;20201;-67
2022/04/17 02:54:38;;;;;;;14.43;12.97;;;;;;;3.66;73.80;102399.78;5113450;28;20527;-67
2022/04/17 02:57:04;;;;;;;15.17;12.40;;;;;;;3.51;75.42;102397.00;5114559;28;20621;-67
2022/04/17 02:59:31;;;;;;;13.83;12.53;;;;;;;3.50;75.47;102390.94;5115025;28;20317;-67
2022/04/17 03:07:29;;;;;;;12.87;11.63;;;;;;;3.54;74.87;102384.06;5114935;28;20231;-67
2022/04/17 03:09:55;;;;;;;13.63;12.07;;;;;;;3.59;75.83;102383.28;5113992;28;20184;-68
2022/04/17 03:12:22;;;;;;;13.73;12.33;;;;;;;3.49;76.04;102384.00;5114382;28;20250;-68
2022/04/17 03:14:48;;;;;;;13.67;12.37;;;;;;;3.54;75.31;102390.13;5114180;28;20193;-67
2022/04/17 03:17:14;;;;;;;18.07;12.73;;;;;;;3.60;75.22;102386.75;5114676;28;20198;-67
2022/04/17 03:19:41;;;;;;;14.97;13.07;;;;;;;3.61;74.70;102391.06;5105109;28;20193;-67
2022/04/17 03:22:07;;;;;;;13.90;12.50;;;;;;;3.63;74.79;102388.50;5094985;28;20239;-68
2022/04/17 03:24:34;;;;;;;14.17;12.70;;;;;;;3.57;75.08;102387.59;5086945;28;20197;-67
2022/04/17 03:27:00;;;;;;;13.83;12.37;;;;;;;3.51;75.33;102395.25;5114766;28;20612;-67
2022/04/17 03:29:27;;;;;;;16.13;11.90;;;;;;;3.55;75.16;102388.41;5113846;28;20192;-67
2022/04/17 03:31:53;;;;;;;14.50;12.87;;;;;;;3.45;74.51;102387.41;5114741;28;20238;-67
2022/04/17 03:34:20;;;;;;;15.53;14.13;;;;;;;3.33;75.04;102388.94;5111674;28;20232;-67
2022/04/17 03:36:47;;;;;;;16.20;13.50;;;;;;;3.31;75.13;102386.31;5114257;28;20204;-67
2022/04/17 03:39:13;;;;;;;16.73;14.07;;;;;;;3.25;75.44;102392.25;5114609;28;20246;-67
2022/04/17 03:41:40;;;;;;;14.83;13.43;;;;;;;3.27;75.02;102389.69;5113608;28;20189;-67
2022/04/17 03:44:06;;;;;;;15.80;14.00;;;;;;;3.20;74.94;102386.13;5113774;28;20560;-67
2022/04/17 03:46:33;;;;;;;24.27;15.07;;;;;;;3.20;75.17;102380.09;5114110;28;20751;-67
2022/04/17 03:49:00;;;;;;;15.67;14.13;;;;;;;3.09;76.10;102373.91;5114398;28;20189;-67
2022/04/17 03:51:26;;;;;;;15.20;13.57;;;;;;;3.02;77.16;102372.91;5113154;28;20185;-67
2022/04/17 03:53:52;;;;;;;15.77;12.87;;;;;;;3.15;77.20;102372.28;5112381;28;20197;-67
2022/04/17 03:56:19;;;;;;;20.43;13.23;;;;;;;3.11;78.00;102369.59;5096627;28;20213;-68
2022/04/17 03:58:45;;;;;;;15.83;14.23;;;;;;;3.13;77.69;102362.72;5093672;28;20246;-68
2022/04/17 04:01:12;;;;;;;15.43;13.83;;;;;;;3.00;78.44;102362.56;5093616;28;20190;-68
2022/04/17 04:03:39;;;;;;;17.00;14.17;;;;;;;3.02;78.02;102358.25;5093552;28;20203;-68
2022/04/17 04:06:06;;;;;;;15.20;13.07;;;;;;;3.11;77.95;102354.94;5110090;28;20242;-67
2022/04/17 04:08:32;;;;;;;15.53;12.97;;;;;;;2.99;78.75;102355.59;5104567;28;20243;-67
2022/04/17 04:10:58;;;;;;;15.10;13.60;;;;;;;3.00;78.61;102352.19;5100149;28;20189;-68
2022/04/17 04:13:25;;;;;;;17.33;14.90;;;;;;;3.02;78.84;102357.41;5114368;28;20193;-68
2022/04/17 04:15:55;;;;;;;20.73;14.73;;;;;;;2.96;78.76;102358.16;5113733;28;20233;-68
2022/04/17 04:18:21;;;;;;;15.60;13.27;;;;;;;3.01;78.70;102353.06;5114020;28;20188;-68
2022/04/17 04:20:48;;;;;;;19.03;13.50;;;;;;;2.91;79.52;102344.28;5113750;28;20185;-68
2022/04/17 04:23:14;;;;;;;22.83;14.77;;;;;;;2.83;79.74;102351.03;5109591;28;20189;-67
2022/04/17 04:25:41;;;;;;;25.50;18.60;;;;;;;2.85;79.58;102351.06;5110273;28;20699;-67
2022/04/17 04:30:53;;;;;;;17.33;14.87;;;;;;;2.89;79.02;102345.09;5113968;28;20173;-67
2022/04/17 04:33:20;;;;;;;15.53;13.93;;;;;;;2.83;79.93;102345.00;5113420;28;20257;-67
2022/04/17 04:35:46;;;;;;;16.53;12.93;;;;;;;2.83;79.50;102351.03;5112000;28;20270;-67
2022/04/17 04:38:13;;;;;;;16.90;14.33;;;;;;;2.82;79.66;102349.28;5113493;28;20219;-67
2022/04/17 04:40:40;;;;;;;16.60;14.87;;;;;;;2.86;79.43;102345.94;5113471;28;20177;-67
2022/04/17 04:43:06;;;;;;;23.40;14.30;;;;;;;2.76;79.84;102344.88;5113070;28;20189;-67
2022/04/17 04:49:29;;;;;;;17.97;14.67;;;;;;;2.74;80.07;102346.59;5112402;28;20593;-67
2022/04/17 04:51:07;;;;;;;17.27;14.60;;;;;;;2.74;80.23;102335.38;5113951;28;20197;-67
2022/04/17 04:53:33;;;;;;;17.43;14.43;;;;;;;2.79;79.83;102344.09;5112499;28;20197;-67
2022/04/17 04:56:00;;;;;;;23.60;13.37;;;;;;;2.83;79.99;102345.00;5111553;28;20222;-67
2022/04/17 04:58:26;;;;;;;20.50;13.70;;;;;;;2.84;79.89;102336.38;5113671;28;20181;-67
2022/04/17 05:00:52;;;;;;;15.27;13.80;;;;;;;2.80;79.40;102343.25;5109296;28;20214;-67
2022/04/17 05:03:19;;;;;;;15.13;13.57;;;;;;;2.74;79.53;102345.72;5113610;28;20228;-67
2022/04/17 05:05:46;;;;;;;14.70;13.20;;;;;;;2.74;79.59;102346.59;5112486;28;20269;-67
2022/04/17 05:08:12;;;;;;;14.37;12.93;;;;;;;2.71;80.46;102336.16;5113295;28;20189;-67
2022/04/17 05:10:39;;;;;;;15.87;14.27;;;;;;;2.76;81.29;102344.00;5108819;28;20200;-67
2022/04/17 05:13:05;;;;;;;17.43;14.50;;;;;;;2.74;82.07;102346.59;5092931;28;20602;-67
2022/04/17 05:15:32;;;;;;;13.93;12.53;;;;;;;2.83;82.32;102347.56;5100697;28;20577;-68
2022/04/17 05:17:58;;;;;;;15.53;14.00;;;;;;;2.91;82.59;102348.56;5111589;28;20666;-67
2022/04/17 05:20:26;;;;;;;17.70;13.43;;;;;;;3.04;82.44;102347.94;5111299;28;20302;-67
2022/04/17 05:22:56;;;;;;;17.03;14.90;;;;;;;3.10;82.19;102349.75;5114070;28;20231;-67
2022/04/17 05:25:24;;;;;;;18.17;15.03;;;;;;;3.28;81.24;102348.28;5116090;28;20257;-68
2022/04/17 05:27:50;;;;;;;17.03;13.57;;;;;;;3.41;80.57;102353.66;5115915;28;20699;-67
2022/04/17 05:30:17;;;;;;;15.47;14.07;;;;;;;3.61;79.89;102356.53;5114796;28;20177;-68
2022/04/17 05:32:43;;;;;;;15.47;13.97;;;;;;;3.74;80.33;102361.03;5114732;28;20197;-67
2022/04/17 05:35:10;;;;;;;15.90;14.20;;;;;;;3.92;79.28;102357.81;5111097;28;20196;-68
2022/04/17 05:37:36;;;;;;;23.57;13.87;;;;;;;4.11;77.66;102359.78;5112425;28;20697;-68
2022/04/17 05:40:03;;;;;;;16.17;13.10;;;;;;;4.18;77.66;102360.72;5100680;28;20247;-68
2022/04/17 05:42:30;;;;;;;21.20;13.07;;;;;;;4.37;77.19;102365.28;5100437;28;20185;-68
2022/04/17 05:44:57;;;;;;;16.13;13.03;;;;;;;4.55;75.92;102361.97;5116749;28;20192;-68
2022/04/17 05:47:23;;;;;;;14.27;12.77;;;;;;;4.73;73.76;102358.72;5116445;28;20690;-68
2022/04/17 05:49:50;;;;;;;15.47;13.20;;;;;;;4.84;72.56;102362.25;5116113;28;20196;-68
2022/04/17 05:52:16;;;;;;;15.90;12.97;;;;;;;4.95;73.18;102363.22;5116414;28;20252;-69
2022/04/17 05:54:43;;;;;;;17.23;14.77;;;;;;;5.11;73.62;102361.63;5116301;28;20714;-69
2022/04/17 05:57:10;;;;;;;15.73;13.97;;;;;;;5.20;73.51;102362.53;5099346;28;20229;-68
2022/04/17 05:59:36;;;;;;;17.70;13.60;;;;;;;5.36;72.13;102357.47;5096424;28;20248;-68
2022/04/17 06:02:03;;;;;;;16.53;12.57;;;;;;;5.47;70.60;102364.47;5096908;28;20181;-68
2022/04/17 06:04:35;;;;;;;14.87;13.33;;;;;;;5.60;72.39;102369.75;5096373;28;20258;-68
2022/04/17 06:07:01;;;;;;;18.37;12.53;;;;;;;5.80;71.65;102376.81;5106137;28;20209;-68
2022/04/17 06:09:27;;;;;;;16.87;13.07;;;;;;;5.95;70.71;102362.16;5116092;28;20198;-68
2022/04/17 06:11:54;;;;;;;15.13;13.40;;;;;;;6.04;70.89;102357.88;5116016;28;20180;-68
2022/04/17 06:14:20;;;;;;;15.10;13.73;;;;;;;6.15;72.74;102349.25;5116332;28;20717;-69
2022/04/17 06:16:47;;;;;;;16.77;12.93;;;;;;;6.42;68.29;102346.69;5108069;28;20208;-68
2022/04/17 06:19:14;;;;;;;13.33;12.17;;;;;;;6.57;69.23;102340.66;5095492;28;20263;-68
2022/04/17 06:21:41;;;;;;;15.13;12.67;;;;;;;6.52;66.43;102358.88;5096029;28;20190;-68
2022/04/17 06:24:07;;;;;;;13.43;12.07;;;;;;;6.71;66.95;102358.88;5106893;28;20202;-68
2022/04/17 06:26:34;;;;;;;13.63;12.17;;;;;;;6.83;65.63;102353.69;5115562;28;20212;-68
2022/04/17 06:29:05;;;;;;;13.13;11.93;;;;;;;6.92;65.38;102347.63;5116218;28;20197;-68
2022/04/17 06:31:32;;;;;;;13.03;11.87;;;;;;;7.02;67.82;102345.03;5110705;28;20250;-68
2022/04/17 06:33:58;;;;;;;13.27;12.07;;;;;;;7.20;65.72;102343.28;5094176;28;20190;-68
2022/04/17 06:36:25;;;;;;;12.60;11.30;;;;;;;7.36;63.80;102348.47;5095455;28;20603;-68
2022/04/17 06:38:51;;;;;;;18.57;10.63;;;;;;;7.52;62.63;102344.09;5107156;28;20193;-69
2022/04/17 06:41:18;;;;;;;12.03;11.03;;;;;;;7.60;62.49;102338.88;5112590;28;20238;-68
2022/04/17 06:43:48;;;;;;;11.63;10.83;;;;;;;7.72;63.97;102331.00;5115955;28;20181;-68
2022/04/17 06:46:15;;;;;;;11.07;10.10;;;;;;;7.85;62.06;102330.06;5102389;28;20271;-69
2022/04/17 06:48:41;;;;;;;14.27;9.97;;;;;;;7.96;60.36;102332.66;5094862;28;20231;-69
2022/04/17 06:51:08;;;;;;;11.27;10.20;;;;;;;8.14;59.07;102326.44;5094853;28;20185;-71
2022/04/17 06:53:34;;;;;;;10.23;8.73;;;;;;;8.36;61.10;102322.00;5104679;28;20246;-71
2022/04/17 06:56:01;;;;;;;12.90;10.57;;;;;;;8.59;59.40;102325.34;5115106;28;20206;-71
2022/04/17 06:58:27;;;;;;;11.30;10.33;;;;;;;8.68;59.42;102327.88;5115437;28;20585;-72
2022/04/17 07:00:53;;;;;;;10.77;10.00;;;;;;;8.77;56.74;102330.41;5115371;28;20182;-72
2022/04/17 07:03:20;;;;;;;10.60;9.90;;;;;;;8.85;57.83;102325.13;5098704;28;20190;-71
2022/04/17 07:05:46;;;;;;;9.63;9.03;;;;;;;9.01;58.86;102324.16;5094796;28;20253;-71
2022/04/17 07:08:13;;;;;;;11.23;10.33;;;;;;;9.26;57.09;102324.75;5103836;28;20189;-71
2022/04/17 07:10:40;;;;;;;10.20;9.43;;;;;;;9.27;56.27;102320.41;5114886;28;20187;-72
2022/04/17 07:13:08;;;;;;;11.97;10.83;;;;;;;9.49;58.29;102318.41;5107555;28;20185;-71
2022/04/17 07:15:35;;;;;;;12.20;11.10;;;;;;;9.70;56.90;102323.41;5103817;28;20206;-71
2022/04/17 07:18:02;;;;;;;11.83;11.00;;;;;;;9.85;58.34;102319.75;5110303;28;20671;-71
2022/04/17 07:20:30;;;;;;;11.23;10.53;;;;;;;10.00;55.93;102319.56;5113528;28;20352;-71
2022/04/17 07:22:56;;;;;;;12.00;10.90;;;;;;;9.97;54.66;102314.34;5113349;28;20188;-72
2022/04/17 07:25:23;;;;;;;12.60;11.40;;;;;;;10.12;56.42;102308.06;5112229;28;20212;-72
2022/04/17 07:27:51;;;;;;;11.77;10.97;;;;;;;10.22;55.27;102298.34;5111191;28;20264;-72
2022/04/17 07:30:23;;;;;;;11.20;10.13;;;;;;;10.31;54.12;102300.84;5098698;28;20238;-72
2022/04/17 07:32:54;;;;;;;10.50;10.00;;;;;;;10.53;57.76;102291.78;5109962;28;20218;-72
2022/04/17 07:35:22;;;;;;;16.40;10.67;;;;;;;10.72;55.36;102290.59;5113558;28;20212;-69
2022/04/17 07:37:57;;;;;;;10.50;9.37;;;;;;;10.91;54.59;102296.38;5111528;28;20184;-69
2022/04/17 07:40:26;;;;;;;9.83;9.43;;;;;;;11.18;54.48;102305.50;5108736;28;20241;-69
2022/04/17 07:42:55;;;;;;;10.93;9.83;;;;;;;11.37;53.74;102305.19;5113697;28;20199;-68
2022/04/17 07:45:23;;;;;;;5.83;5.57;;;;;;;11.51;47.34;102311.03;5111768;28;20258;-68
2022/04/17 07:47:50;;;;;;;5.30;5.20;;;;;;;11.52;46.55;102303.13;5113521;28;20238;-68
2022/04/17 07:50:21;;;;;;;5.07;4.97;;;;;;;11.61;46.57;102304.69;5111002;28;20189;-69
2022/04/17 07:52:47;;;;;;;4.70;4.70;;;;;;;11.79;48.43;102296.44;5112673;28;20648;-69
2022/04/17 07:55:15;;;;;;;5.50;5.10;;;;;;;11.82;46.89;102306.91;5112949;28;20216;-69
2022/04/17 08:00:32;;;;;;;4.63;4.53;;;;;;;12.13;43.08;102309.72;5114297;28;20181;-69
2022/04/17 08:03:24;;;;;;;4.87;4.60;;;;;;;12.28;44.85;102303.25;5111438;28;20184;-69
2022/04/17 08:05:51;;;;;;;4.83;4.77;;;;;;;12.46;43.74;102306.38;5111524;28;20206;-69
2022/04/17 08:08:19;;;;;;;4.70;4.70;;;;;;;12.35;44.00;102311.88;5114458;28;20230;-70
2022/04/17 08:10:46;;;;;;;5.87;5.73;;;;;;;12.50;45.88;102301.03;5111976;28;20192;-69
2022/04/17 08:13:12;;;;;;;4.87;4.77;;;;;;;12.67;43.55;102311.97;5106580;28;20190;-68
2022/04/17 08:15:39;;;;;;;5.57;5.47;;;;;;;12.81;43.83;102301.13;5106287;28;20312;-70
2022/04/17 08:18:05;;;;;;;5.17;5.07;;;;;;;12.97;43.16;102292.84;5112037;28;20211;-69
2022/04/17 08:20:32;;;;;;;4.93;4.83;;;;;;;13.04;44.27;102290.00;5107067;28;20697;-69
2022/04/17 08:22:59;;;;;;;10.47;4.00;;;;;;;13.29;44.36;102289.38;5106620;28;20550;-69
2022/04/17 08:25:25;;;;;;;4.60;4.57;;;;;;;13.13;41.58;102288.91;5112125;28;20213;-69
2022/04/17 08:27:55;;;;;;;4.00;4.00;;;;;;;13.41;44.28;102284.66;5113546;28;20265;-69
2022/04/17 08:30:23;;;;;;;4.00;4.00;;;;;;;13.52;41.57;102287.00;5111307;28;20181;-70
2022/04/17 08:32:50;;;;;;;3.80;3.80;;;;;;;13.53;41.86;102283.44;5109651;28;20201;-70
2022/04/17 08:35:17;;;;;;;4.53;4.23;;;;;;;13.42;41.23;102281.09;5112495;28;20697;-69
2022/04/17 08:37:44;;;;;;;4.13;4.13;;;;;;;13.74;42.44;102287.22;5109879;28;20647;-70
2022/04/17 08:40:11;;;;;;;4.37;4.27;;;;;;;13.70;40.04;102281.19;5112409;28;20263;-70
2022/04/17 08:42:39;;;;;;;3.67;3.67;;;;;;;13.99;41.86;102282.94;5113523;28;20194;-70
2022/04/17 08:45:09;;;;;;;5.00;4.90;;;;;;;14.08;42.31;102273.06;5103619;28;20184;-70
2022/04/17 08:47:37;;;;;;;4.50;4.40;;;;;;;13.90;39.22;102277.97;5093605;28;20243;-70
2022/04/17 08:50:09;;;;;;;4.37;4.27;;;;;;;14.10;40.68;102276.50;5102560;28;20185;-69
2022/04/17 08:52:37;;;;;;;3.70;3.70;;;;;;;14.39;40.43;102271.16;5113718;28;20177;-69
2022/04/17 08:55:05;;;;;;;3.80;3.70;;;;;;;14.65;41.13;102273.00;5112021;28;20243;-69
2022/04/17 08:57:31;;;;;;;3.70;3.70;;;;;;;14.88;40.30;102268.72;5114514;28;20177;-69
2022/04/17 08:59:58;;;;;;;4.23;4.23;;;;;;;14.84;39.69;102266.16;5113905;28;20197;-69
2022/04/17 09:02:25;;;;;;;3.87;3.73;;;;;;;14.82;37.42;102260.09;5117232;28;20178;-70
2022/04/17 09:04:51;;;;;;;4.43;4.23;;;;;;;14.80;38.56;102261.06;5116156;28;20181;-70
2022/04/17 09:07:18;;;;;;;3.50;3.10;;;;;;;14.83;39.17;102251.25;5117288;28;20333;-69
2022/04/17 09:09:51;;;;;;;3.20;3.20;;;;;;;14.88;36.16;102256.38;5115868;28;20186;-71
2022/04/17 09:12:19;;;;;;;3.10;3.10;;;;;;;14.99;37.48;102245.44;5116464;28;20724;-70
2022/04/17 09:14:46;;;;;;;3.30;3.30;;;;;;;15.01;37.46;102244.50;5117033;28;20184;-71
2022/04/17 09:17:12;;;;;;;6.00;4.50;;;;;;;15.21;36.94;102241.13;5117245;28;20209;-71
2022/04/17 09:19:39;;;;;;;5.00;4.60;;;;;;;15.40;37.84;102236.91;5110608;28;20181;-69
2022/04/17 09:22:07;;;;;;;3.70;3.67;;;;;;;15.45;37.63;102233.25;5117288;28;20242;-70
2022/04/17 09:24:38;;;;;;;4.23;4.13;;;;;;;15.48;38.87;102225.19;5116967;28;20231;-70
2022/04/17 09:27:06;;;;;;;3.90;3.90;;;;;;;15.54;36.88;102228.47;5116103;28;20313;-69
2022/04/17 09:29:37;;;;;;;3.27;3.17;;;;;;;15.56;36.43;102241.59;5115592;28;20234;-70
2022/04/17 09:32:15;;;;;;;4.07;3.87;;;;;;;15.57;37.09;102232.75;5115255;28;20189;-71
2022/04/17 09:34:52;;;;;;;3.90;3.90;;;;;;;15.41;36.45;102229.84;5116138;28;20219;-68
2022/04/17 09:37:20;;;;;;;3.77;3.50;;;;;;;15.49;37.69;102225.13;5116500;28;20315;-70
2022/04/17 09:39:48;;;;;;;3.47;3.47;;;;;;;15.33;36.24;102224.00;5114964;28;20199;-70
2022/04/17 09:42:25;;;;;;;3.80;3.70;;;;;;;15.28;35.71;102225.94;5116666;28;20210;-70
2022/04/17 09:44:55;;;;;;;3.60;3.60;;;;;;;15.10;35.58;102222.19;5116766;28;20615;-70
2022/04/17 09:47:23;;;;;;;3.30;3.20;;;;;;;15.25;37.48;102213.72;5113660;28;20196;-69
2022/04/17 09:50:08;;;;;;;3.50;3.50;;;;;;;15.54;35.51;102207.34;5113560;28;20193;-69
2022/04/17 09:52:44;;;;;;;5.50;3.70;;;;;;;15.79;36.58;102203.78;5113477;28;20189;-69
2022/04/17 09:55:12;;;;;;;3.83;3.73;;;;;;;16.01;35.09;102196.75;5115850;28;20242;-73
2022/04/17 09:57:40;;;;;;;3.80;3.80;;;;;;;15.68;35.93;102197.16;5116322;28;20185;-73
2022/04/17 10:00:16;;;;;;;3.60;3.53;;;;;;;15.74;34.77;102192.56;5116257;28;20189;-72
2022/04/17 10:02:45;;;;;;;3.17;3.07;;;;;;;15.83;36.23;102178.97;5114625;28;20184;-72
2022/04/17 10:05:13;;;;;;;3.73;3.63;;;;;;;16.06;35.74;102181.56;5115005;28;20185;-72
2022/04/17 10:07:42;;;;;;;4.17;4.07;;;;;;;16.25;35.04;102176.38;5114416;28;20250;-72
2022/04/17 10:10:11;;;;;;;4.17;3.97;;;;;;;16.50;37.51;102163.84;5115264;28;20200;-72
2022/04/17 10:12:41;;;;;;;3.13;3.13;;;;;;;16.81;34.00;102166.97;5116369;28;20231;-73
2022/04/17 10:15:08;;;;;;;3.57;3.47;;;;;;;16.73;35.54;102168.19;5114082;28;20207;-73
2022/04/17 10:17:38;;;;;;;4.37;4.17;;;;;;;16.58;35.41;102160.88;5099427;28;20244;-72
2022/04/17 10:20:11;;;;;;;4.20;4.10;;;;;;;16.75;35.63;102160.16;5095834;28;20174;-73
2022/04/17 10:22:40;;;;;;;4.37;4.27;;;;;;;16.85;34.10;102153.53;5095457;28;20239;-73
2022/04/17 10:25:08;;;;;;;2.93;2.93;;;;;;;16.70;34.26;102152.41;5105727;28;20242;-72
2022/04/17 10:27:37;;;;;;;3.10;2.90;;;;;;;16.83;35.25;102141.31;5115662;28;20197;-73
2022/04/17 10:30:08;;;;;;;3.00;3.00;;;;;;;17.19;36.67;102142.28;5114717;28;20301;-72
2022/04/17 10:32:56;;;;;;;3.13;3.10;;;;;;;17.38;30.76;102138.78;5114410;28;20190;-73
2022/04/17 10:35:32;;;;;;;3.80;3.70;;;;;;;17.04;31.64;102127.97;5115279;28;20201;-72
2022/04/17 10:38:24;;;;;;;3.53;3.23;;;;;;;16.81;31.10;102128.16;5114393;28;20280;-73
2022/04/17 10:40:52;;;;;;;3.30;3.30;;;;;;;17.05;32.48;102105.84;5114975;28;20182;-73
2022/04/17 10:43:20;;;;;;;3.00;3.00;;;;;;;16.78;30.84;102110.63;5115945;28;20181;-73
2022/04/17 10:46:16;;;;;;;3.13;3.13;;;;;;;16.40;31.18;102111.44;5115340;28;20247;-73
2022/04/17 10:48:45;;;;;;;3.20;3.10;;;;;;;16.63;29.84;102105.13;5115215;28;20185;-72
2022/04/17 10:51:24;;;;;;;3.10;3.10;;;;;;;16.75;30.36;102110.75;5115843;28;20198;-73
2022/04/17 10:53:58;;;;;;;3.63;3.53;;;;;;;16.77;31.12;102100.97;5114532;28;20215;-73
2022/04/17 10:56:24;;;;;;;3.87;3.77;;;;;;;17.28;31.36;102094.19;5094839;28;20607;-73
2022/04/17 10:58:59;;;;;;;2.73;2.73;;;;;;;17.53;32.68;102091.25;5094760;28;20183;-72
2022/04/17 11:01:46;;;;;;;3.63;3.43;;;;;;;17.52;29.74;102092.19;5095249;28;20178;-69
2022/04/17 11:04:27;;;;;;;3.63;3.50;;;;;;;17.53;31.21;102079.78;5114685;28;20218;-71
2022/04/17 11:07:03;;;;;;;4.50;4.30;;;;;;;17.23;31.28;102077.69;5114869;28;20265;-71
2022/04/17 11:09:31;;;;;;;6.53;3.40;;;;;;;17.16;31.16;102078.06;5111308;28;20186;-71
2022/04/17 11:12:08;;;;;;;3.63;3.63;;;;;;;17.16;30.48;102073.63;5095260;28;20193;-70
2022/04/17 11:14:34;;;;;;;4.00;3.80;;;;;;;17.27;33.62;102066.00;5112400;28;20185;-70
2022/04/17 11:17:08;;;;;;;3.83;3.77;;;;;;;17.26;31.33;102066.94;5113034;28;20205;-69
2022/04/17 11:19:37;;;;;;;15.03;3.77;;;;;;;17.30;31.81;102059.72;5114356;28;20200;-70
2022/04/17 11:22:05;;;;;;;4.20;4.00;;;;;;;17.17;32.52;102058.59;5096459;28;20602;-70
2022/04/17 11:24:54;;;;;;;4.30;4.20;;;;;;;17.26;31.83;102058.16;5113365;28;20201;-71
2022/04/17 11:27:49;;;;;;;4.13;4.13;;;;;;;17.09;32.03;102051.00;5114545;28;20213;-70
2022/04/17 11:30:36;;;;;;;5.03;4.93;;;;;;;17.25;33.07;102046.69;5114377;28;20620;-70
2022/04/17 11:33:04;;;;;;;6.73;4.83;;;;;;;17.39;32.91;102045.19;5112851;28;20189;-70
2022/04/17 11:35:31;;;;;;;4.63;3.43;;;;;;;17.63;32.35;102040.47;5114380;28;20630;-70
2022/04/17 11:38:03;;;;;;;4.00;3.90;;;;;;;17.88;33.54;102025.09;5114390;28;20181;-70
2022/04/17 11:40:32;;;;;;;4.30;4.20;;;;;;;17.56;30.63;102029.31;5114619;28;20572;-70
2022/04/17 11:43:07;;;;;;;3.87;3.87;;;;;;;17.61;32.10;102027.28;5114271;28;20181;-71
2022/04/17 11:45:34;;;;;;;3.70;3.70;;;;;;;17.92;31.44;102021.34;5101904;28;20266;-70
2022/04/17 11:48:09;;;;;;;4.40;4.13;;;;;;;17.93;32.12;102016.88;5114223;28;20205;-71